sensor_id;sensor_type;location;lat;lon;timestamp;pressure;altitude;pressure_sealevel;temperature;humidity
27980;BME280;15315;50.836;4.430;2023-02-04T00:05:16;102792.16;;;13.89;100.00
27980;BME280;15315;50.836;4.430;2023-02-04T00:15:17;102793.69;;;13.77;100.00
27980;BME280;15315;50.836;4.430;2023-02-04T00:25:18;102800.38;;;13.70;100.00
27980;BME280;15315;50.836;4.430;2023-02-04T00:35:18;102789.31;;;13.92;100.00
27980;BME280;15315;50.836;4.430;2023-02-04T00:45:18;102795.47;;;13.41;100.00
27980;BME280;15315;50.836;4.430;2023-02-04T00:55:19;102801.56;;;13.82;100.00
27980;BME280;15315;50.836;4.430;2023-02-04T01:05:19;102795.69;;;13.91;100.00
27980;BME280;15315;50.836;4.430;2023-02-04T01:15:19;102800.94;;;14.28;100.00
27980;BME280;15315;50.836;4.430;2023-02-04T01:25:21;102810.53;;;14.01;100.00
27980;BME280;15315;50.836;4.430;2023-02-04T01:35:22;102807.34;;;13.38;100.00
27980;BME280;15315;50.836;4.430;2023-02-04T01:45:23;102820.22;;;13.52;100.00
27980;BME280;15315;50.836;4.430;2023-02-04T01:55:26;102815.47;;;13.93;100.00
27980;BME280;15315;50.836;4.430;2023-02-04T02:05:31;102825.59;;;13.53;100.00
27980;BME280;15315;50.836;4.430;2023-02-04T02:15:32;102839.28;;;13.13;100.00
27980;BME280;15315;50.836;4.430;2023-02-04T02:25:32;102849.00;;;13.17;100.00
27980;BME280;15315;50.836;4.430;2023-02-04T02:35:33;102858.25;;;12.54;100.00
27980;BME280;15315;50.836;4.430;2023-02-04T02:45:33;102861.28;;;12.47;100.00
27980;BME280;15315;50.836;4.430;2023-02-04T02:55:34;102855.22;;;12.62;100.00
27980;BME280;15315;50.836;4.430;2023-02-04T03:05:37;102861.34;;;12.25;100.00
27980;BME280;15315;50.836;4.430;2023-02-04T03:15:41;102875.13;;;11.54;100.00
27980;BME280;15315;50.836;4.430;2023-02-04T03:25:42;102879.50;;;12.21;100.00
27980;BME280;15315;50.836;4.430;2023-02-04T03:35:43;102887.06;;;12.75;100.00
27980;BME280;15315;50.836;4.430;2023-02-04T03:45:43;102893.72;;;12.68;100.00
27980;BME280;15315;50.836;4.430;2023-02-04T03:55:44;102897.63;;;13.20;100.00
27980;BME280;15315;50.836;4.430;2023-02-04T04:05:44;102901.75;;;12.90;100.00
27980;BME280;15315;50.836;4.430;2023-02-04T04:15:44;102919.25;;;13.22;100.00
27980;BME280;15315;50.836;4.430;2023-02-04T04:25:45;102917.50;;;13.58;100.00
27980;BME280;15315;50.836;4.430;2023-02-04T04:35:45;102926.06;;;13.86;100.00
27980;BME280;15315;50.836;4.430;2023-02-04T04:45:45;102914.91;;;14.28;100.00
27980;BME280;15315;50.836;4.430;2023-02-04T04:55:46;102921.53;;;13.87;100.00
27980;BME280;15315;50.836;4.430;2023-02-04T05:05:46;102925.50;;;13.98;100.00
27980;BME280;15315;50.836;4.430;2023-02-04T05:15:47;102921.75;;;13.64;100.00
27980;BME280;15315;50.836;4.430;2023-02-04T05:25:47;102932.91;;;13.57;100.00
27980;BME280;15315;50.836;4.430;2023-02-04T05:35:48;102923.63;;;13.99;100.00
27980;BME280;15315;50.836;4.430;2023-02-04T05:45:48;102930.72;;;14.37;100.00
27980;BME280;15315;50.836;4.430;2023-02-04T05:55:48;102945.50;;;14.32;100.00
27980;BME280;15315;50.836;4.430;2023-02-04T06:05:49;102945.13;;;14.39;100.00
27980;BME280;15315;50.836;4.430;2023-02-04T06:15:49;102958.88;;;14.17;100.00
27980;BME280;15315;50.836;4.430;2023-02-04T06:25:49;102963.75;;;13.92;100.00
27980;BME280;15315;50.836;4.430;2023-02-04T06:35:50;102968.19;;;14.12;100.00
27980;BME280;15315;50.836;4.430;2023-02-04T06:45:50;102994.38;;;13.94;100.00
27980;BME280;15315;50.836;4.430;2023-02-04T06:55:51;102994.81;;;14.04;100.00
27980;BME280;15315;50.836;4.430;2023-02-04T07:05:51;103003.34;;;14.32;100.00
27980;BME280;15315;50.836;4.430;2023-02-04T07:15:53;102996.81;;;14.36;100.00
27980;BME280;15315;50.836;4.430;2023-02-04T07:25:53;103020.91;;;13.69;100.00
27980;BME280;15315;50.836;4.430;2023-02-04T07:35:56;103018.50;;;14.19;100.00
27980;BME280;15315;50.836;4.430;2023-02-04T07:45:59;103027.50;;;14.19;100.00
27980;BME280;15315;50.836;4.430;2023-02-04T07:55:59;103032.91;;;14.19;100.00
27980;BME280;15315;50.836;4.430;2023-02-04T08:06:00;103037.59;;;14.53;100.00
27980;BME280;15315;50.836;4.430;2023-02-04T08:16:01;103057.19;;;14.41;100.00
27980;BME280;15315;50.836;4.430;2023-02-04T08:26:01;103051.41;;;14.49;100.00
27980;BME280;15315;50.836;4.430;2023-02-04T08:36:02;103060.22;;;14.54;100.00
27980;BME280;15315;50.836;4.430;2023-02-04T08:46:03;103072.06;;;14.33;100.00
27980;BME280;15315;50.836;4.430;2023-02-04T08:56:03;103089.91;;;14.01;100.00
27980;BME280;15315;50.836;4.430;2023-02-04T09:06:05;103100.16;;;14.13;100.00
27980;BME280;15315;50.836;4.430;2023-02-04T09:16:06;103116.00;;;14.03;100.00
27980;BME280;15315;50.836;4.430;2023-02-04T09:26:06;103119.00;;;13.97;100.00
27980;BME280;15315;50.836;4.430;2023-02-04T09:36:06;103125.22;;;14.57;100.00
27980;BME280;15315;50.836;4.430;2023-02-04T09:46:27;103120.13;;;14.31;100.00
27980;BME280;15315;50.836;4.430;2023-02-04T09:56:29;103130.56;;;14.58;100.00
27980;BME280;15315;50.836;4.430;2023-02-04T10:06:30;103132.97;;;14.83;100.00
27980;BME280;15315;50.836;4.430;2023-02-04T10:16:32;103139.22;;;15.19;100.00
27980;BME280;15315;50.836;4.430;2023-02-04T10:26:34;103143.91;;;14.99;100.00
27980;BME280;15315;50.836;4.430;2023-02-04T10:36:34;103142.28;;;15.30;100.00
27980;BME280;15315;50.836;4.430;2023-02-04T10:46:34;103147.97;;;15.26;100.00
27980;BME280;15315;50.836;4.430;2023-02-04T10:56:35;103153.25;;;14.57;100.00
27980;BME280;15315;50.836;4.430;2023-02-04T11:06:35;103159.72;;;14.16;100.00
27980;BME280;15315;50.836;4.430;2023-02-04T11:16:46;103161.31;;;14.59;100.00
27980;BME280;15315;50.836;4.430;2023-02-04T11:27:06;103150.22;;;14.63;100.00
27980;BME280;15315;50.836;4.430;2023-02-04T11:37:27;103147.34;;;15.72;100.00
27980;BME280;15315;50.836;4.430;2023-02-04T11:47:34;103140.78;;;15.76;100.00
27980;BME280;15315;50.836;4.430;2023-02-04T11:57:39;103140.44;;;16.15;100.00
27980;BME280;15315;50.836;4.430;2023-02-04T12:07:40;103142.25;;;15.99;100.00
27980;BME280;15315;50.836;4.430;2023-02-04T12:17:43;103142.88;;;16.04;100.00
27980;BME280;15315;50.836;4.430;2023-02-04T12:27:45;103146.19;;;15.93;100.00
27980;BME280;15315;50.836;4.430;2023-02-04T12:37:45;103144.69;;;16.21;100.00
27980;BME280;15315;50.836;4.430;2023-02-04T12:47:46;103161.97;;;15.53;100.00
27980;BME280;15315;50.836;4.430;2023-02-04T12:57:50;103161.00;;;15.36;100.00
27980;BME280;15315;50.836;4.430;2023-02-04T13:07:50;103160.53;;;14.93;100.00
27980;BME280;15315;50.836;4.430;2023-02-04T13:17:51;103151.63;;;13.55;100.00
27980;BME280;15315;50.836;4.430;2023-02-04T13:27:51;103148.50;;;13.85;100.00
27980;BME280;15315;50.836;4.430;2023-02-04T13:37:52;103143.94;;;14.43;100.00
27980;BME280;15315;50.836;4.430;2023-02-04T13:47:52;103140.50;;;14.95;100.00
27980;BME280;15315;50.836;4.430;2023-02-04T13:57:52;103128.44;;;15.35;100.00
27980;BME280;15315;50.836;4.430;2023-02-04T14:07:53;103128.97;;;15.43;100.00
27980;BME280;15315;50.836;4.430;2023-02-04T14:17:53;103136.22;;;15.25;100.00
27980;BME280;15315;50.836;4.430;2023-02-04T14:27:54;103115.28;;;15.94;100.00
27980;BME280;15315;50.836;4.430;2023-02-04T14:37:55;103122.81;;;15.57;100.00
27980;BME280;15315;50.836;4.430;2023-02-04T14:47:55;103135.88;;;15.83;100.00
27980;BME280;15315;50.836;4.430;2023-02-04T14:57:58;103134.50;;;16.24;100.00
27980;BME280;15315;50.836;4.430;2023-02-04T15:07:59;103147.78;;;15.97;98.65
27980;BME280;15315;50.836;4.430;2023-02-04T15:18:00;103140.94;;;15.73;97.55
27980;BME280;15315;50.836;4.430;2023-02-04T15:28:01;103136.31;;;15.41;97.24
27980;BME280;15315;50.836;4.430;2023-02-04T15:38:01;103141.53;;;14.93;98.55
27980;BME280;15315;50.836;4.430;2023-02-04T15:48:02;103154.19;;;14.75;100.00
27980;BME280;15315;50.836;4.430;2023-02-04T15:58:02;103142.25;;;15.49;98.23
27980;BME280;15315;50.836;4.430;2023-02-04T16:08:03;103138.81;;;15.45;99.16
27980;BME280;15315;50.836;4.430;2023-02-04T16:18:03;103148.63;;;15.48;98.50
27980;BME280;15315;50.836;4.430;2023-02-04T16:28:04;103156.84;;;14.94;100.00
27980;BME280;15315;50.836;4.430;2023-02-04T16:38:04;103170.97;;;13.88;100.00
27980;BME280;15315;50.836;4.430;2023-02-04T16:48:05;103182.94;;;14.42;100.00
27980;BME280;15315;50.836;4.430;2023-02-04T16:58:05;103185.69;;;14.21;100.00
27980;BME280;15315;50.836;4.430;2023-02-04T17:08:06;103195.97;;;13.75;100.00
27980;BME280;15315;50.836;4.430;2023-02-04T17:18:07;103205.88;;;13.96;100.00
27980;BME280;15315;50.836;4.430;2023-02-04T17:28:07;103216.56;;;13.79;100.00
27980;BME280;15315;50.836;4.430;2023-02-04T17:38:08;103220.16;;;14.58;100.00
27980;BME280;15315;50.836;4.430;2023-02-04T17:48:08;103218.63;;;14.90;100.00
27980;BME280;15315;50.836;4.430;2023-02-04T17:58:15;103225.03;;;13.91;100.00
27980;BME280;15315;50.836;4.430;2023-02-04T18:08:26;103241.31;;;13.49;100.00
27980;BME280;15315;50.836;4.430;2023-02-04T18:18:33;103240.84;;;13.82;100.00
27980;BME280;15315;50.836;4.430;2023-02-04T18:28:35;103254.25;;;13.43;100.00
27980;BME280;15315;50.836;4.430;2023-02-04T18:38:38;103233.28;;;13.26;100.00
27980;BME280;15315;50.836;4.430;2023-02-04T18:58:54;103254.75;;;13.74;100.00
27980;BME280;15315;50.836;4.430;2023-02-04T19:19:33;103255.59;;;13.54;100.00
27980;BME280;15315;50.836;4.430;2023-02-04T19:29:38;103258.22;;;13.78;100.00
27980;BME280;15315;50.836;4.430;2023-02-04T19:39:39;103254.59;;;14.17;100.00
27980;BME280;15315;50.836;4.430;2023-02-04T19:49:43;103272.38;;;14.24;100.00
27980;BME280;15315;50.836;4.430;2023-02-04T19:59:44;103276.09;;;14.22;100.00
27980;BME280;15315;50.836;4.430;2023-02-04T20:09:44;103272.31;;;13.86;100.00
27980;BME280;15315;50.836;4.430;2023-02-04T20:19:45;103267.16;;;14.20;100.00
27980;BME280;15315;50.836;4.430;2023-02-04T20:29:47;103256.25;;;14.21;100.00
27980;BME280;15315;50.836;4.430;2023-02-04T20:39:48;103277.97;;;13.59;100.00
27980;BME280;15315;50.836;4.430;2023-02-04T20:49:51;103253.75;;;13.33;100.00
27980;BME280;15315;50.836;4.430;2023-02-04T20:59:53;103267.94;;;12.96;100.00
27980;BME280;15315;50.836;4.430;2023-02-04T21:09:53;103273.38;;;13.40;100.00
27980;BME280;15315;50.836;4.430;2023-02-04T21:19:53;103274.53;;;13.33;100.00
27980;BME280;15315;50.836;4.430;2023-02-04T21:29:54;103269.44;;;13.04;100.00
27980;BME280;15315;50.836;4.430;2023-02-04T21:39:54;103274.53;;;13.33;100.00
27980;BME280;15315;50.836;4.430;2023-02-04T21:50:14;103261.75;;;13.15;100.00
27980;BME280;15315;50.836;4.430;2023-02-04T22:00:21;103269.50;;;12.79;100.00
27980;BME280;15315;50.836;4.430;2023-02-04T22:10:24;103290.91;;;13.08;100.00
27980;BME280;15315;50.836;4.430;2023-02-04T22:20:24;103296.66;;;13.22;100.00
27980;BME280;15315;50.836;4.430;2023-02-04T22:30:25;103288.44;;;13.02;100.00
27980;BME280;15315;50.836;4.430;2023-02-04T22:40:25;103290.41;;;12.98;100.00
27980;BME280;15315;50.836;4.430;2023-02-04T22:50:26;103305.38;;;13.07;100.00
27980;BME280;15315;50.836;4.430;2023-02-04T23:00:26;103306.25;;;13.31;100.00
27980;BME280;15315;50.836;4.430;2023-02-04T23:10:27;103320.25;;;13.85;100.00
27980;BME280;15315;50.836;4.430;2023-02-04T23:20:27;103312.78;;;13.25;100.00
27980;BME280;15315;50.836;4.430;2023-02-04T23:30:28;103300.44;;;12.73;100.00
27980;BME280;15315;50.836;4.430;2023-02-04T23:40:28;103293.75;;;13.05;100.00
27980;BME280;15315;50.836;4.430;2023-02-04T23:50:29;103290.22;;;13.03;100.00
